createdAt,value
2022-10-31T00:01:32.358Z,36.70
2022-10-31T00:04:04.856Z,28.70
2022-10-31T00:06:37.292Z,27.40
2022-10-31T00:09:09.431Z,26.70
2022-10-31T00:11:41.848Z,26.30
2022-10-31T00:14:14.163Z,26.20
2022-10-31T00:16:46.288Z,31.20
2022-10-31T00:19:18.565Z,26.30
2022-10-31T00:21:50.734Z,28.90
2022-10-31T00:24:22.894Z,26.70
2022-10-31T00:26:55.032Z,31.70
2022-10-31T00:29:27.158Z,32.60
2022-10-31T00:31:59.335Z,23.50
2022-10-31T00:34:31.472Z,27.70
2022-10-31T00:37:03.621Z,26.90
2022-10-31T00:39:35.860Z,27.50
2022-10-31T00:42:08.284Z,24.20
2022-10-31T00:44:40.589Z,23.90
2022-10-31T00:47:12.717Z,29.50
2022-10-31T00:49:44.886Z,32.10
2022-10-31T00:52:17.164Z,28.90
2022-10-31T00:54:49.395Z,29.50
2022-10-31T00:57:21.584Z,28.50
2022-10-31T00:59:53.719Z,26.80
2022-10-31T01:02:26.076Z,22.70
2022-10-31T01:04:58.382Z,31.50
2022-10-31T01:07:30.586Z,29.80
2022-10-31T01:10:02.716Z,27.40
2022-10-31T01:12:40.268Z,34.30
2022-10-31T01:15:16.400Z,38.00
2022-10-31T01:17:48.565Z,27.30
2022-10-31T01:20:21.446Z,28.00
2022-10-31T01:22:53.588Z,25.90
2022-10-31T01:25:25.743Z,24.00
2022-10-31T01:27:58.749Z,23.10
2022-10-31T01:30:31.278Z,19.10
2022-10-31T01:33:03.425Z,24.30
2022-10-31T01:35:35.606Z,27.90
2022-10-31T01:38:07.747Z,32.70
2022-10-31T01:40:40.039Z,23.30
2022-10-31T01:43:16.606Z,24.10
2022-10-31T01:45:53.778Z,19.90
2022-10-31T01:48:32.410Z,23.10
2022-10-31T01:51:06.123Z,20.10
2022-10-31T01:53:39.291Z,25.60
2022-10-31T01:56:12.777Z,18.30
2022-10-31T01:58:47.619Z,21.60
2022-10-31T02:01:20.830Z,25.30
2022-10-31T02:03:53.590Z,18.70
2022-10-31T02:06:34.725Z,23.60
2022-10-31T02:09:08.513Z,19.80
2022-10-31T02:11:43.491Z,20.20
2022-10-31T02:14:16.094Z,17.30
2022-10-31T02:16:48.262Z,16.70
2022-10-31T02:19:27.693Z,18.60
2022-10-31T02:22:07.031Z,18.50
2022-10-31T02:25:04.504Z,20.10
2022-10-31T02:28:03.782Z,21.80
2022-10-31T02:30:46.049Z,26.90
2022-10-31T02:33:30.064Z,20.50
2022-10-31T02:36:13.777Z,20.20
2022-10-31T02:39:00.694Z,13.40
2022-10-31T02:41:40.210Z,20.10
2022-10-31T02:44:19.054Z,22.90
2022-10-31T02:46:56.771Z,16.90
2022-10-31T02:49:36.364Z,18.90
2022-10-31T02:52:21.073Z,16.40
2022-10-31T02:54:53.938Z,15.60
2022-10-31T02:57:31.994Z,16.00
2022-10-31T03:00:07.092Z,20.10
2022-10-31T03:03:02.006Z,17.40
2022-10-31T03:05:55.855Z,19.60
2022-10-31T03:08:34.392Z,19.90
2022-10-31T03:11:09.243Z,23.00
2022-10-31T03:13:47.738Z,14.60
2022-10-31T03:16:29.823Z,21.80
2022-10-31T03:19:05.935Z,21.90
2022-10-31T03:21:42.559Z,15.90
2022-10-31T03:24:17.357Z,14.90
2022-10-31T03:26:53.958Z,27.80
2022-10-31T03:29:30.630Z,15.80
2022-10-31T03:32:08.440Z,18.60
2022-10-31T03:34:44.061Z,17.10
2022-10-31T03:37:20.043Z,15.30
2022-10-31T03:39:56.205Z,20.10
2022-10-31T03:42:31.355Z,22.90
2022-10-31T03:45:08.710Z,14.80
2022-10-31T03:47:43.349Z,20.70
2022-10-31T03:50:18.467Z,17.70
2022-10-31T03:52:54.133Z,17.40
2022-10-31T03:55:32.450Z,15.30
2022-10-31T03:58:10.145Z,15.00
2022-10-31T04:00:46.747Z,16.00
2022-10-31T04:03:24.328Z,18.70
2022-10-31T04:05:59.347Z,20.30
2022-10-31T04:08:36.430Z,22.60
2022-10-31T04:11:10.746Z,15.70
2022-10-31T04:13:46.197Z,16.60
2022-10-31T04:16:20.098Z,20.70
2022-10-31T04:18:52.587Z,15.20
2022-10-31T04:21:31.711Z,19.20
2022-10-31T04:24:03.943Z,15.40
2022-10-31T04:26:36.315Z,19.50
2022-10-31T04:29:08.530Z,16.50
2022-10-31T04:31:40.767Z,14.80
2022-10-31T04:34:13.055Z,20.00
2022-10-31T04:36:45.226Z,16.70
2022-10-31T04:39:19.417Z,14.40
2022-10-31T04:41:55.098Z,19.70
2022-10-31T04:44:27.350Z,14.60
2022-10-31T04:46:59.545Z,21.10
2022-10-31T04:49:31.757Z,28.80
2022-10-31T04:52:03.922Z,22.00
2022-10-31T04:54:36.068Z,15.00
2022-10-31T04:57:08.319Z,13.60
2022-10-31T04:59:40.468Z,14.50
2022-10-31T05:02:12.952Z,17.70
2022-10-31T05:04:45.172Z,19.80
2022-10-31T05:07:17.391Z,18.70
2022-10-31T05:09:49.545Z,21.70
2022-10-31T05:12:21.753Z,17.20
2022-10-31T05:14:53.899Z,20.90
2022-10-31T05:17:26.094Z,17.60
2022-10-31T05:19:58.376Z,19.30
2022-10-31T05:22:30.597Z,20.80
2022-10-31T05:25:02.771Z,23.90
2022-10-31T05:27:34.978Z,16.40
2022-10-31T05:30:08.746Z,21.80
2022-10-31T05:32:44.578Z,39.50
2022-10-31T05:37:48.583Z,20.60
2022-10-31T05:40:22.018Z,19.10
2022-10-31T05:42:57.851Z,19.80
2022-10-31T05:45:30.540Z,32.40
2022-10-31T05:48:04.266Z,29.20
2022-10-31T05:50:36.956Z,27.30
2022-10-31T05:53:10.027Z,25.20
2022-10-31T05:55:42.819Z,24.50
2022-10-31T05:58:15.087Z,23.00
2022-10-31T06:00:47.201Z,21.10
2022-10-31T06:03:19.610Z,23.10
2022-10-31T06:05:54.981Z,27.70
2022-10-31T06:08:28.486Z,26.30
2022-10-31T06:11:00.678Z,30.00
2022-10-31T06:13:32.905Z,24.10
2022-10-31T06:16:05.336Z,28.20
2022-10-31T06:18:37.591Z,29.30
2022-10-31T06:21:11.533Z,25.00
2022-10-31T06:23:45.857Z,21.50
2022-10-31T06:26:18.120Z,26.70
2022-10-31T06:28:50.279Z,17.60
2022-10-31T06:31:22.657Z,19.10
2022-10-31T06:33:54.777Z,21.20
2022-10-31T06:39:00.115Z,23.70
2022-10-31T06:41:32.427Z,21.20
2022-10-31T06:44:08.040Z,31.90
2022-10-31T06:46:41.284Z,25.30
2022-10-31T06:49:13.414Z,27.70
2022-10-31T06:51:45.784Z,23.80
2022-10-31T06:54:18.046Z,22.50
2022-10-31T06:56:50.996Z,20.70
2022-10-31T06:59:23.139Z,28.00
2022-10-31T07:01:55.533Z,36.20
2022-10-31T07:04:27.797Z,31.10
2022-10-31T07:07:00.046Z,37.60
2022-10-31T07:09:32.258Z,28.50
2022-10-31T07:12:04.593Z,41.60
2022-10-31T07:14:36.731Z,47.40
2022-10-31T07:17:08.865Z,34.50
2022-10-31T07:19:40.963Z,42.20
2022-10-31T07:22:13.182Z,55.60
2022-10-31T07:24:45.443Z,41.30
2022-10-31T07:27:17.722Z,36.50
2022-10-31T07:29:49.867Z,61.30
2022-10-31T07:32:22.167Z,43.20
2022-10-31T07:34:54.422Z,31.80
2022-10-31T07:37:29.464Z,27.00
2022-10-31T07:40:01.754Z,34.00
2022-10-31T07:42:38.573Z,35.90
2022-10-31T07:45:13.491Z,18.20
2022-10-31T07:47:47.486Z,21.30
2022-10-31T07:50:21.342Z,19.40
2022-10-31T07:53:02.753Z,16.30
2022-10-31T07:55:35.650Z,18.50
2022-10-31T07:58:09.539Z,20.30
2022-10-31T08:00:43.524Z,15.90
2022-10-31T08:03:17.825Z,11.40
2022-10-31T08:05:50.113Z,13.30
2022-10-31T08:08:22.401Z,16.30
2022-10-31T08:10:54.589Z,18.80
2022-10-31T08:13:26.806Z,11.30
2022-10-31T08:16:04.578Z,9.70
2022-10-31T08:18:38.571Z,13.50
2022-10-31T08:21:11.568Z,17.40
2022-10-31T08:23:43.680Z,13.10
2022-10-31T08:26:15.868Z,12.90
2022-10-31T08:28:48.023Z,17.10
2022-10-31T08:31:20.137Z,20.10
2022-10-31T08:33:54.398Z,12.20
2022-10-31T08:36:26.648Z,26.80
2022-10-31T08:39:01.884Z,11.40
2022-10-31T08:41:34.502Z,18.50
2022-10-31T08:44:06.894Z,20.80
2022-10-31T08:46:39.071Z,21.20
2022-10-31T08:49:11.286Z,15.50
2022-10-31T08:51:43.573Z,12.50
2022-10-31T08:54:15.858Z,31.70
2022-10-31T08:56:47.999Z,13.80
2022-10-31T08:59:20.157Z,15.70
2022-10-31T09:01:52.364Z,18.40
2022-10-31T09:04:24.750Z,19.50
2022-10-31T09:09:48.916Z,19.60
2022-10-31T09:12:21.207Z,14.80
2022-10-31T09:14:53.338Z,14.90
2022-10-31T09:17:27.824Z,17.60
2022-10-31T09:20:00.102Z,11.90
2022-10-31T09:22:32.343Z,15.50
2022-10-31T09:25:04.788Z,13.50
2022-10-31T09:27:36.969Z,9.70
2022-10-31T09:30:11.263Z,17.80
2022-10-31T09:32:43.538Z,16.20
2022-10-31T09:35:17.367Z,11.60
2022-10-31T09:37:55.682Z,15.50
2022-10-31T09:40:32.977Z,9.90
2022-10-31T09:43:15.213Z,18.10
2022-10-31T09:45:58.581Z,14.60
2022-10-31T09:48:47.062Z,19.10
2022-10-31T09:51:22.695Z,20.10
2022-10-31T09:54:02.630Z,26.50
2022-10-31T09:56:36.569Z,12.50
2022-10-31T09:59:14.750Z,12.50
2022-10-31T10:01:52.863Z,17.90
2022-10-31T10:04:40.425Z,19.90
2022-10-31T10:07:22.709Z,11.40
2022-10-31T10:09:54.870Z,14.70
2022-10-31T10:12:53.252Z,12.80
2022-10-31T10:15:57.417Z,10.60
2022-10-31T10:18:41.412Z,12.20
2022-10-31T10:21:26.058Z,11.30
2022-10-31T10:24:07.643Z,14.10
2022-10-31T10:26:44.973Z,19.00
2022-10-31T10:29:33.684Z,14.00
2022-10-31T10:32:13.304Z,19.80
2022-10-31T10:34:48.566Z,16.20
2022-10-31T10:37:33.796Z,11.60
2022-10-31T10:40:16.610Z,19.10
2022-10-31T10:43:15.299Z,10.60
2022-10-31T10:46:11.662Z,19.30
2022-10-31T10:48:51.318Z,11.70
2022-10-31T10:54:49.092Z,13.20
2022-10-31T10:57:33.351Z,14.50
2022-10-31T11:00:21.511Z,10.40
2022-10-31T11:02:54.516Z,19.00
2022-10-31T11:05:32.798Z,9.50
2022-10-31T11:08:05.723Z,9.90
2022-10-31T11:10:38.821Z,13.00
2022-10-31T11:13:25.986Z,16.40
2022-10-31T11:16:05.811Z,10.60
2022-10-31T11:18:39.828Z,19.70
2022-10-31T11:21:24.400Z,11.50
2022-10-31T11:24:06.538Z,12.30
2022-10-31T11:26:40.504Z,11.70
2022-10-31T11:29:19.199Z,16.70
2022-10-31T11:31:54.279Z,19.40
2022-10-31T11:34:33.103Z,11.90
2022-10-31T11:37:24.032Z,9.70
2022-10-31T11:39:58.533Z,18.10
2022-10-31T11:42:37.287Z,21.30
2022-10-31T11:45:18.865Z,13.60
2022-10-31T11:47:59.637Z,13.10
2022-10-31T11:50:38.277Z,8.90
2022-10-31T11:53:18.261Z,20.60
2022-10-31T11:56:02.360Z,9.90
2022-10-31T11:58:34.722Z,14.60
2022-10-31T12:01:07.118Z,16.50
2022-10-31T12:03:50.491Z,22.60
2022-10-31T12:06:27.106Z,10.80
2022-10-31T12:08:59.287Z,10.00
2022-10-31T12:11:48.950Z,13.80
2022-10-31T12:14:34.325Z,16.70
2022-10-31T12:17:14.632Z,21.20
2022-10-31T12:20:00.506Z,11.50
2022-10-31T12:22:42.250Z,14.10
2022-10-31T12:25:28.323Z,12.00
2022-10-31T12:28:09.048Z,11.50
2022-10-31T12:30:55.547Z,15.00
2022-10-31T12:33:52.174Z,21.00
2022-10-31T12:36:39.504Z,13.90
2022-10-31T12:39:33.144Z,13.10
2022-10-31T12:42:11.458Z,13.10
2022-10-31T12:45:03.837Z,11.60
2022-10-31T12:47:52.910Z,12.10
2022-10-31T12:50:43.286Z,9.20
2022-10-31T12:53:39.316Z,13.50
2022-10-31T12:56:22.422Z,12.60
2022-10-31T12:58:59.713Z,7.80
2022-10-31T13:01:37.174Z,10.10
2022-10-31T13:04:18.402Z,11.40
2022-10-31T13:06:53.510Z,10.10
2022-10-31T13:09:31.127Z,11.60
2022-10-31T13:12:10.165Z,10.10
2022-10-31T13:14:46.075Z,13.30
2022-10-31T13:17:27.707Z,15.30
2022-10-31T13:20:22.105Z,9.60
2022-10-31T13:22:57.021Z,10.80
2022-10-31T13:25:35.718Z,12.40
2022-10-31T13:28:21.071Z,9.80
2022-10-31T13:30:55.230Z,12.00
2022-10-31T13:33:32.045Z,23.80
2022-10-31T13:36:17.564Z,13.30
2022-10-31T13:38:54.221Z,13.30
2022-10-31T13:41:41.437Z,10.90
2022-10-31T13:44:19.896Z,12.10
2022-10-31T13:46:52.127Z,24.30
2022-10-31T13:49:39.305Z,13.50
2022-10-31T13:52:19.503Z,19.60
2022-10-31T13:54:57.155Z,20.00
2022-10-31T13:57:37.540Z,13.90
2022-10-31T14:00:27.991Z,26.40
2022-10-31T14:03:01.277Z,13.20
2022-10-31T14:05:35.486Z,11.70
2022-10-31T14:08:20.302Z,15.40
2022-10-31T14:10:55.135Z,15.50
2022-10-31T14:13:33.718Z,19.40
2022-10-31T14:16:08.341Z,19.30
2022-10-31T14:18:43.558Z,12.90
2022-10-31T14:21:29.375Z,8.70
2022-10-31T14:24:01.531Z,12.30
2022-10-31T14:26:40.044Z,10.50
2022-10-31T14:29:32.701Z,17.40
2022-10-31T14:32:19.377Z,24.60
2022-10-31T14:34:58.945Z,9.60
2022-10-31T14:37:50.987Z,18.40
2022-10-31T14:40:32.796Z,12.80
2022-10-31T14:43:38.487Z,9.10
2022-10-31T14:46:19.385Z,20.00
2022-10-31T14:49:07.214Z,20.10
2022-10-31T14:51:41.736Z,23.00
2022-10-31T14:54:19.586Z,23.30
2022-10-31T14:56:55.598Z,17.10
2022-10-31T14:59:32.699Z,19.20
2022-10-31T15:02:17.175Z,15.90
2022-10-31T15:04:53.487Z,20.10
2022-10-31T15:07:28.011Z,15.60
2022-10-31T15:10:02.338Z,20.10
2022-10-31T15:12:39.164Z,152.70
2022-10-31T15:15:21.400Z,76.70
2022-10-31T15:17:56.988Z,47.50
2022-10-31T15:20:35.703Z,32.40
2022-10-31T15:23:08.051Z,24.90
2022-10-31T15:25:40.198Z,27.60
2022-10-31T15:28:24.710Z,19.10
2022-10-31T15:30:58.407Z,26.80
2022-10-31T15:33:38.744Z,20.30
2022-10-31T15:36:27.707Z,15.40
2022-10-31T15:39:01.717Z,25.10
2022-10-31T15:41:37.427Z,13.00
2022-10-31T15:44:17.877Z,27.40
2022-10-31T15:46:57.150Z,26.40
2022-10-31T15:49:36.134Z,24.50
2022-10-31T15:52:14.084Z,14.20
2022-10-31T15:54:51.096Z,25.50
2022-10-31T15:57:23.561Z,24.50
2022-10-31T15:59:56.014Z,22.80
2022-10-31T16:02:29.627Z,30.00
2022-10-31T16:05:03.459Z,27.40
2022-10-31T16:07:35.920Z,12.50
2022-10-31T16:10:22.639Z,18.00
2022-10-31T16:12:55.526Z,25.60
2022-10-31T16:15:27.839Z,14.10
2022-10-31T16:18:01.743Z,19.70
2022-10-31T16:20:38.990Z,18.30
2022-10-31T16:23:18.881Z,16.60
2022-10-31T16:25:51.749Z,12.70
2022-10-31T16:28:30.201Z,31.20
2022-10-31T16:31:14.873Z,29.70
2022-10-31T16:33:47.166Z,20.90
2022-10-31T16:36:39.629Z,27.20
2022-10-31T16:39:12.143Z,18.20
2022-10-31T16:41:47.729Z,30.10
2022-10-31T16:47:05.482Z,21.50
2022-10-31T16:49:37.654Z,20.00
2022-10-31T16:52:10.117Z,43.40
2022-10-31T16:54:42.318Z,44.70
2022-10-31T16:57:18.411Z,72.30
2022-10-31T16:59:55.033Z,36.80
2022-10-31T17:02:27.494Z,21.40
2022-10-31T17:04:59.872Z,23.70
2022-10-31T17:07:32.007Z,27.70
2022-10-31T17:10:04.160Z,20.00
2022-10-31T17:12:36.976Z,26.10
2022-10-31T17:15:16.287Z,24.00
2022-10-31T17:17:48.509Z,21.80
2022-10-31T17:20:25.253Z,27.60
2022-10-31T17:22:59.121Z,40.80
2022-10-31T17:25:33.206Z,37.90
2022-10-31T17:28:05.878Z,25.80
2022-10-31T17:30:39.127Z,31.20
2022-10-31T17:33:15.227Z,33.50
2022-10-31T17:35:47.435Z,31.70
2022-10-31T17:38:19.687Z,24.50
2022-10-31T17:40:52.032Z,34.80
2022-10-31T17:43:27.261Z,38.60
2022-10-31T17:46:02.177Z,26.60
2022-10-31T17:48:34.870Z,31.40
2022-10-31T17:51:08.464Z,31.30
2022-10-31T17:53:40.696Z,26.70
2022-10-31T17:56:12.896Z,25.10
2022-10-31T17:58:45.182Z,40.30
2022-10-31T18:01:20.750Z,34.80
2022-10-31T18:06:23.719Z,40.30
2022-10-31T18:08:58.281Z,27.40
2022-10-31T18:11:30.506Z,31.10
2022-10-31T18:14:03.004Z,25.50
2022-10-31T18:19:16.262Z,47.90
2022-10-31T18:21:49.125Z,31.60
2022-10-31T18:24:21.524Z,31.30
2022-10-31T18:26:53.698Z,47.90
2022-10-31T18:29:26.041Z,35.40
2022-10-31T18:31:58.446Z,32.20
2022-10-31T18:34:30.548Z,35.10
2022-10-31T18:37:03.196Z,40.80
2022-10-31T18:39:35.411Z,32.00
2022-10-31T18:42:07.674Z,40.80
2022-10-31T18:44:39.937Z,34.90
2022-10-31T18:47:12.255Z,57.70
2022-10-31T18:49:44.409Z,35.80
2022-10-31T18:52:16.550Z,30.90
2022-10-31T18:54:48.759Z,41.40
2022-10-31T18:57:21.245Z,45.80
2022-10-31T18:59:53.517Z,31.20
2022-10-31T19:02:25.738Z,30.80
2022-10-31T19:04:58.152Z,35.80
2022-10-31T19:07:31.076Z,37.40
2022-10-31T19:10:03.331Z,34.70
2022-10-31T19:12:36.234Z,32.30
2022-10-31T19:15:10.222Z,35.80
2022-10-31T19:17:42.362Z,37.70
2022-10-31T19:20:15.740Z,48.10
2022-10-31T19:22:48.217Z,33.70
2022-10-31T19:25:20.598Z,37.90
2022-10-31T19:27:52.727Z,34.40
2022-10-31T19:30:25.015Z,39.30
2022-10-31T19:32:58.348Z,40.90
2022-10-31T19:35:30.561Z,50.00
2022-10-31T19:38:03.141Z,44.50
2022-10-31T19:40:37.402Z,34.90
2022-10-31T19:43:09.535Z,46.30
2022-10-31T19:45:41.799Z,36.10
2022-10-31T19:48:13.989Z,42.90
2022-10-31T19:50:46.131Z,33.30
2022-10-31T19:53:18.292Z,31.40
2022-10-31T19:55:50.449Z,37.80
2022-10-31T19:58:22.573Z,44.00
2022-10-31T20:00:54.957Z,36.00
2022-10-31T20:03:27.383Z,47.10
2022-10-31T20:05:59.575Z,37.80
2022-10-31T20:08:34.560Z,42.30
2022-10-31T20:11:08.217Z,48.20
2022-10-31T20:13:40.504Z,58.50
2022-10-31T20:16:14.385Z,40.80
2022-10-31T20:18:47.077Z,40.00
2022-10-31T20:21:21.586Z,50.70
2022-10-31T20:23:58.457Z,37.00
2022-10-31T20:26:32.067Z,42.80
2022-10-31T20:29:05.478Z,33.30
2022-10-31T20:31:40.108Z,30.10
2022-10-31T20:34:12.358Z,40.00
2022-10-31T20:36:44.525Z,41.50
2022-10-31T20:39:16.696Z,46.70
2022-10-31T20:41:48.850Z,41.90
2022-10-31T20:44:21.196Z,42.00
2022-10-31T20:46:54.218Z,46.70
2022-10-31T20:49:26.474Z,54.50
2022-10-31T20:51:58.586Z,55.00
2022-10-31T20:54:30.799Z,50.10
2022-10-31T20:57:03.110Z,47.90
2022-10-31T20:59:35.360Z,46.00
2022-10-31T21:02:08.687Z,76.30
2022-10-31T21:04:41.050Z,80.30
2022-10-31T21:07:13.248Z,55.50
2022-10-31T21:09:45.457Z,81.10
2022-10-31T21:12:17.597Z,66.80
2022-10-31T21:14:49.882Z,83.30
2022-10-31T21:17:22.001Z,79.80
2022-10-31T21:19:54.274Z,87.00
2022-10-31T21:22:26.826Z,90.00
2022-10-31T21:24:59.058Z,94.80
2022-10-31T21:27:31.665Z,91.50
2022-10-31T21:30:04.293Z,84.30
2022-10-31T21:32:39.460Z,85.00
2022-10-31T21:35:12.317Z,83.10
2022-10-31T21:37:44.707Z,75.70
2022-10-31T21:40:17.550Z,80.60
2022-10-31T21:42:49.737Z,86.00
2022-10-31T21:45:22.045Z,78.30
2022-10-31T21:47:54.242Z,81.20
2022-10-31T21:50:26.458Z,93.30
2022-10-31T21:53:18.747Z,80.00
2022-10-31T21:55:50.896Z,76.10
2022-10-31T21:58:23.286Z,78.30
2022-10-31T22:00:55.569Z,76.80
2022-10-31T22:03:27.782Z,77.60
2022-10-31T22:06:05.236Z,78.30
2022-10-31T22:08:37.494Z,78.50
2022-10-31T22:11:13.757Z,71.00
2022-10-31T22:13:47.769Z,80.80
2022-10-31T22:16:21.728Z,68.60
2022-10-31T22:18:57.215Z,73.90
2022-10-31T22:21:30.976Z,62.90
2022-10-31T22:24:05.068Z,65.20
2022-10-31T22:26:40.680Z,64.90
2022-10-31T22:29:16.123Z,44.20
2022-10-31T22:31:52.032Z,60.70
2022-10-31T22:34:27.542Z,51.80
2022-10-31T22:36:59.690Z,53.50
2022-10-31T22:39:31.824Z,54.60
2022-10-31T22:42:03.985Z,56.20
2022-10-31T22:44:36.165Z,48.30
2022-10-31T22:47:08.338Z,33.90
2022-10-31T22:49:40.617Z,32.80
2022-10-31T22:52:13.301Z,34.60
2022-10-31T22:54:45.442Z,55.80
2022-10-31T22:57:17.666Z,31.00
2022-10-31T22:59:50.590Z,28.10
2022-10-31T23:02:23.449Z,26.70
2022-10-31T23:04:55.747Z,30.80
2022-10-31T23:07:32.097Z,46.20
2022-10-31T23:10:05.708Z,36.90
2022-10-31T23:12:55.331Z,30.40
2022-10-31T23:15:27.601Z,30.10
2022-10-31T23:18:01.045Z,29.70
2022-10-31T23:20:33.345Z,34.70
2022-10-31T23:23:05.639Z,31.10
2022-10-31T23:25:55.170Z,26.10
2022-10-31T23:28:27.339Z,26.10
2022-10-31T23:30:59.479Z,30.50
2022-10-31T23:33:32.171Z,24.90
2022-10-31T23:36:04.439Z,25.70
2022-10-31T23:38:36.579Z,33.80
2022-10-31T23:41:08.712Z,32.60
2022-10-31T23:43:40.953Z,38.00
2022-10-31T23:46:13.274Z,29.30
2022-10-31T23:48:48.322Z,28.60
2022-10-31T23:51:20.569Z,60.80
2022-10-31T23:53:52.794Z,27.80
2022-10-31T23:56:25.047Z,23.90
2022-10-31T23:58:57.288Z,38.50
